createdAt,value
2023-04-07T00:00:41.558Z,27.46
2023-04-07T00:01:41.611Z,27.45
2023-04-07T00:02:43.014Z,27.42
2023-04-07T00:03:40.784Z,27.47
2023-04-07T00:04:41.597Z,27.46
2023-04-07T00:05:41.572Z,27.43
2023-04-07T00:06:41.550Z,27.42
2023-04-07T00:07:48.918Z,27.45
2023-04-07T00:08:41.592Z,27.41
2023-04-07T00:09:41.685Z,27.45
2023-04-07T00:10:41.542Z,27.43
2023-04-07T00:11:41.550Z,27.44
2023-04-07T00:12:41.524Z,27.45
2023-04-07T00:13:41.521Z,27.46
2023-04-07T00:14:41.524Z,27.46
2023-04-07T00:15:41.642Z,27.47
2023-04-07T00:16:41.477Z,27.43
2023-04-07T00:17:41.614Z,27.53
2023-04-07T00:18:41.477Z,27.47
2023-04-07T00:19:40.506Z,27.46
2023-04-07T00:20:41.447Z,27.46
2023-04-07T00:21:41.440Z,27.46
2023-04-07T00:22:41.440Z,27.50
2023-04-07T00:23:41.452Z,27.53
2023-04-07T00:24:41.417Z,27.50
2023-04-07T00:25:41.411Z,27.50
2023-04-07T00:26:40.464Z,27.46
2023-04-07T00:27:40.452Z,27.50
2023-04-07T00:28:41.399Z,27.47
2023-04-07T00:29:41.390Z,27.52
2023-04-07T00:30:41.441Z,27.46
2023-04-07T00:31:41.450Z,27.46
2023-04-07T00:32:41.377Z,27.49
2023-04-07T00:33:41.398Z,27.52
2023-04-07T00:34:41.358Z,27.53
2023-04-07T00:35:40.373Z,27.47
2023-04-07T00:36:40.340Z,27.47
2023-04-07T00:37:40.336Z,27.53
2023-04-07T00:38:41.353Z,27.53
2023-04-07T00:39:41.318Z,27.49
2023-04-07T00:40:41.323Z,27.50
2023-04-07T00:41:41.310Z,27.53
2023-04-07T00:42:41.311Z,27.52
2023-04-07T00:43:40.281Z,27.52
2023-04-07T00:44:41.314Z,27.51
2023-04-07T00:45:41.270Z,27.52
2023-04-07T00:46:41.305Z,27.52
2023-04-07T00:47:41.343Z,27.52
2023-04-07T00:48:41.259Z,27.50
2023-04-07T00:49:41.245Z,27.54
2023-04-07T00:50:41.261Z,27.53
2023-04-07T00:51:41.225Z,27.53
2023-04-07T00:52:41.246Z,27.50
2023-04-07T00:53:41.251Z,27.52
2023-04-07T00:54:40.271Z,27.53
2023-04-07T00:55:41.317Z,27.52
2023-04-07T00:56:41.892Z,27.49
2023-04-07T00:57:41.334Z,27.53
2023-04-07T00:58:41.315Z,27.50
2023-04-07T00:59:41.301Z,27.50
2023-04-07T01:00:40.310Z,27.50
2023-04-07T01:01:41.357Z,27.51
2023-04-07T01:02:41.542Z,27.56
2023-04-07T01:03:41.640Z,27.56
2023-04-07T01:04:41.487Z,27.53
2023-04-07T01:05:40.274Z,27.56
2023-04-07T01:06:41.248Z,27.53
2023-04-07T01:07:41.262Z,27.54
2023-04-07T01:08:41.246Z,27.57
2023-04-07T01:09:41.245Z,27.56
2023-04-07T01:10:41.218Z,27.49
2023-04-07T01:11:41.223Z,27.54
2023-04-07T01:12:41.248Z,27.54
2023-04-07T01:13:41.218Z,27.56
2023-04-07T01:14:40.208Z,27.53
2023-04-07T01:15:41.200Z,27.54
2023-04-07T01:16:40.248Z,27.54
2023-04-07T01:17:41.213Z,27.54
2023-04-07T01:18:41.225Z,27.51
2023-04-07T01:19:41.233Z,27.50
2023-04-07T01:20:41.173Z,27.50
2023-04-07T01:21:41.146Z,27.51
2023-04-07T01:22:40.144Z,27.57
2023-04-07T01:23:41.136Z,27.50
2023-04-07T01:24:40.140Z,27.50
2023-04-07T01:25:41.113Z,27.48
2023-04-07T01:26:40.115Z,27.51
2023-04-07T01:27:40.107Z,27.57
2023-04-07T01:28:40.086Z,27.54
2023-04-07T01:29:41.088Z,27.56
2023-04-07T01:30:41.095Z,27.56
2023-04-07T01:31:40.144Z,27.56
2023-04-07T01:32:41.107Z,27.53
2023-04-07T01:33:41.100Z,27.56
2023-04-07T01:34:41.116Z,27.54
2023-04-07T01:35:40.173Z,27.51
2023-04-07T01:36:40.244Z,27.51
2023-04-07T01:37:41.214Z,27.56
2023-04-07T01:38:41.221Z,27.56
2023-04-07T01:39:41.242Z,27.56
2023-04-07T01:40:41.271Z,27.51
2023-04-07T01:41:41.298Z,27.54
2023-04-07T01:42:40.304Z,27.51
2023-04-07T01:43:41.655Z,27.51
2023-04-07T01:44:40.352Z,27.53
2023-04-07T01:45:41.472Z,27.56
2023-04-07T01:46:41.427Z,27.57
2023-04-07T01:47:41.466Z,27.56
2023-04-07T01:48:40.456Z,27.54
2023-04-07T01:49:41.480Z,27.58
2023-04-07T01:50:41.511Z,27.63
2023-04-07T01:51:41.555Z,27.57
2023-04-07T01:52:41.662Z,27.60
2023-04-07T01:53:40.586Z,27.58
2023-04-07T01:54:40.623Z,27.54
2023-04-07T01:55:40.647Z,27.56
2023-04-07T01:56:41.657Z,27.54
2023-04-07T01:57:41.681Z,27.53
2023-04-07T01:58:41.743Z,27.53
2023-04-07T01:59:41.730Z,27.54
2023-04-07T02:00:41.821Z,27.54
2023-04-07T02:01:41.067Z,27.57
2023-04-07T02:02:42.041Z,27.53
2023-04-07T02:03:41.062Z,27.56
2023-04-07T02:04:41.895Z,27.56
2023-04-07T02:05:41.917Z,27.55
2023-04-07T02:06:41.942Z,27.55
2023-04-07T02:07:41.011Z,27.57
2023-04-07T02:08:42.011Z,27.57
2023-04-07T02:09:42.057Z,27.54
2023-04-07T02:10:41.074Z,27.60
2023-04-07T02:11:42.086Z,27.57
2023-04-07T02:12:42.106Z,27.58
2023-04-07T02:13:42.139Z,27.56
2023-04-07T02:14:42.192Z,27.55
2023-04-07T02:15:41.176Z,27.61
2023-04-07T02:16:42.253Z,27.54
2023-04-07T02:17:42.278Z,27.58
2023-04-07T02:18:42.301Z,27.60
2023-04-07T02:19:42.294Z,27.58
2023-04-07T02:20:42.364Z,27.61
2023-04-07T02:21:42.372Z,27.58
2023-04-07T02:22:42.398Z,27.61
2023-04-07T02:23:42.438Z,27.61
2023-04-07T02:24:41.440Z,27.63
2023-04-07T02:25:41.465Z,27.61
2023-04-07T02:26:42.489Z,27.64
2023-04-07T02:27:41.509Z,27.58
2023-04-07T02:28:42.915Z,27.63
2023-04-07T02:29:42.572Z,27.62
2023-04-07T02:30:42.619Z,27.64
2023-04-07T02:31:42.652Z,27.61
2023-04-07T02:32:42.715Z,27.61
2023-04-07T02:33:41.703Z,27.60
2023-04-07T02:34:42.736Z,27.58
2023-04-07T02:35:41.734Z,27.57
2023-04-07T02:36:42.792Z,27.62
2023-04-07T02:37:42.784Z,27.58
2023-04-07T02:38:42.851Z,27.62
2023-04-07T02:39:42.884Z,27.61
2023-04-07T02:40:42.891Z,27.65
2023-04-07T02:41:42.915Z,27.58
2023-04-07T02:42:42.949Z,27.55
2023-04-07T02:43:42.984Z,27.65
2023-04-07T02:44:42.994Z,27.60
2023-04-07T02:45:42.054Z,27.61
2023-04-07T02:46:42.060Z,27.60
2023-04-07T02:47:43.123Z,27.60
2023-04-07T02:48:42.110Z,27.62
2023-04-07T02:49:42.150Z,27.64
2023-04-07T02:50:43.176Z,27.57
2023-04-07T02:51:43.213Z,27.62
2023-04-07T02:52:43.278Z,27.57
2023-04-07T02:53:43.307Z,27.57
2023-04-07T02:54:42.356Z,27.61
2023-04-07T02:55:43.349Z,27.58
2023-04-07T02:56:43.379Z,27.57
2023-04-07T02:57:43.414Z,27.61
2023-04-07T02:58:43.477Z,27.60
2023-04-07T02:59:43.545Z,27.62
2023-04-07T03:00:43.515Z,27.65
2023-04-07T03:01:43.647Z,27.58
2023-04-07T03:02:42.642Z,27.61
2023-04-07T03:03:43.697Z,27.64
2023-04-07T03:04:42.643Z,27.62
2023-04-07T03:05:43.663Z,27.61
2023-04-07T03:06:42.705Z,27.57
2023-04-07T03:07:43.752Z,27.65
2023-04-07T03:08:43.789Z,27.60
2023-04-07T03:09:43.785Z,27.58
2023-04-07T03:10:43.845Z,27.61
2023-04-07T03:11:43.850Z,27.62
2023-04-07T03:12:43.881Z,27.55
2023-04-07T03:13:43.926Z,27.54
2023-04-07T03:14:43.947Z,27.57
2023-04-07T03:15:43.987Z,27.58
2023-04-07T03:16:43.051Z,27.64
2023-04-07T03:17:44.919Z,27.58
2023-04-07T03:18:44.088Z,27.62
2023-04-07T03:19:44.094Z,27.68
2023-04-07T03:20:43.137Z,27.65
2023-04-07T03:21:43.180Z,27.59
2023-04-07T03:22:44.257Z,27.61
2023-04-07T03:23:44.271Z,27.60
2023-04-07T03:24:44.280Z,27.57
2023-04-07T03:25:44.591Z,27.59
2023-04-07T03:26:44.417Z,27.66
2023-04-07T03:27:44.375Z,27.58
2023-04-07T03:28:44.442Z,27.62
2023-04-07T03:29:43.438Z,27.62
2023-04-07T03:30:44.489Z,27.58
2023-04-07T03:31:44.569Z,27.60
2023-04-07T03:32:44.573Z,27.65
2023-04-07T03:33:44.580Z,27.61
2023-04-07T03:34:43.587Z,27.61
2023-04-07T03:35:44.673Z,27.61
2023-04-07T03:36:43.636Z,27.58
2023-04-07T03:37:43.647Z,27.64
2023-04-07T03:38:44.816Z,27.61
2023-04-07T03:39:44.720Z,27.61
2023-04-07T03:40:44.742Z,27.64
2023-04-07T03:41:44.764Z,27.59
2023-04-07T03:42:43.808Z,27.58
2023-04-07T03:43:44.842Z,27.61
2023-04-07T03:44:43.854Z,27.59
2023-04-07T03:45:43.919Z,27.60
2023-04-07T03:46:45.042Z,27.61
2023-04-07T03:47:44.986Z,27.64
2023-04-07T03:48:44.015Z,27.58
2023-04-07T03:49:45.030Z,27.61
2023-04-07T03:50:45.151Z,27.62
2023-04-07T03:51:45.091Z,27.61
2023-04-07T03:52:45.165Z,27.57
2023-04-07T03:53:44.193Z,27.58
2023-04-07T03:54:44.199Z,27.64
2023-04-07T03:55:45.251Z,27.64
2023-04-07T03:56:45.276Z,27.61
2023-04-07T03:57:44.312Z,27.62
2023-04-07T03:58:44.385Z,27.58
2023-04-07T03:59:45.370Z,27.61
2023-04-07T04:00:45.448Z,27.58
2023-04-07T04:01:45.511Z,27.61
2023-04-07T04:02:45.556Z,27.59
2023-04-07T04:03:44.668Z,27.64
2023-04-07T04:04:45.632Z,27.59
2023-04-07T04:05:45.578Z,27.58
2023-04-07T04:06:45.636Z,27.57
2023-04-07T04:07:45.643Z,27.57
2023-04-07T04:08:45.688Z,27.58
2023-04-07T04:09:44.742Z,27.61
2023-04-07T04:10:44.751Z,27.64
2023-04-07T04:11:44.800Z,27.59
2023-04-07T04:12:45.825Z,27.62
2023-04-07T04:13:45.899Z,27.62
2023-04-07T04:14:45.974Z,27.61
2023-04-07T04:15:45.962Z,27.62
2023-04-07T04:16:45.977Z,27.58
2023-04-07T04:17:46.024Z,27.61
2023-04-07T04:18:46.049Z,27.64
2023-04-07T04:19:45.081Z,27.61
2023-04-07T04:20:45.361Z,27.56
2023-04-07T04:21:46.163Z,27.59
2023-04-07T04:22:45.179Z,27.56
2023-04-07T04:23:46.238Z,27.64
2023-04-07T04:24:45.276Z,27.61
2023-04-07T04:25:46.332Z,27.62
2023-04-07T04:26:46.448Z,27.65
2023-04-07T04:27:46.346Z,27.62
2023-04-07T04:28:46.405Z,27.64
2023-04-07T04:29:46.471Z,27.65
2023-04-07T04:30:46.437Z,27.61
2023-04-07T04:31:46.526Z,27.58
2023-04-07T04:32:46.505Z,27.58
2023-04-07T04:33:46.611Z,27.58
2023-04-07T04:34:46.570Z,27.56
2023-04-07T04:35:46.623Z,27.59
2023-04-07T04:36:46.658Z,27.56
2023-04-07T04:37:46.743Z,27.59
2023-04-07T04:38:46.693Z,27.61
2023-04-07T04:39:46.720Z,27.62
2023-04-07T04:40:46.763Z,27.58
2023-04-07T04:41:46.783Z,27.68
2023-04-07T04:42:46.795Z,27.58
2023-04-07T04:43:47.881Z,27.58
2023-04-07T04:44:46.893Z,27.56
2023-04-07T04:45:46.914Z,27.56
2023-04-07T04:46:46.975Z,27.53
2023-04-07T04:47:46.995Z,27.57
2023-04-07T04:48:45.985Z,27.58
2023-04-07T04:49:46.065Z,27.59
2023-04-07T04:50:47.079Z,27.58
2023-04-07T04:51:47.102Z,27.61
2023-04-07T04:52:47.177Z,27.62
2023-04-07T04:53:47.199Z,27.59
2023-04-07T04:54:47.238Z,27.58
2023-04-07T04:55:47.285Z,27.61
2023-04-07T04:56:47.407Z,27.59
2023-04-07T04:57:47.388Z,27.59
2023-04-07T04:58:47.364Z,27.62
2023-04-07T04:59:47.423Z,27.59
2023-04-07T05:00:46.478Z,27.64
2023-04-07T05:01:47.677Z,27.61
2023-04-07T05:02:47.727Z,27.65
2023-04-07T05:03:47.685Z,27.62
2023-04-07T05:04:47.689Z,27.62
2023-04-07T05:05:47.602Z,27.59
2023-04-07T05:06:47.660Z,27.65
2023-04-07T05:07:47.731Z,27.59
2023-04-07T05:08:47.734Z,27.59
2023-04-07T05:09:47.781Z,27.55
2023-04-07T05:10:47.861Z,27.58
2023-04-07T05:11:47.864Z,27.58
2023-04-07T05:12:47.899Z,27.60
2023-04-07T05:13:47.981Z,27.59
2023-04-07T05:14:48.001Z,27.62
2023-04-07T05:15:48.182Z,27.60
2023-04-07T05:16:47.074Z,27.59
2023-04-07T05:17:48.178Z,27.59
2023-04-07T05:18:48.185Z,27.64
2023-04-07T05:19:48.219Z,27.62
2023-04-07T05:20:48.240Z,27.60
2023-04-07T05:21:48.299Z,27.55
2023-04-07T05:22:48.312Z,27.59
2023-04-07T05:23:48.407Z,27.63
2023-04-07T05:24:48.388Z,27.59
2023-04-07T05:25:48.446Z,27.64
2023-04-07T05:26:48.550Z,27.58
2023-04-07T05:27:48.556Z,27.59
2023-04-07T05:28:47.546Z,27.59
2023-04-07T05:29:48.639Z,27.59
2023-04-07T05:30:47.637Z,27.62
2023-04-07T05:31:48.694Z,27.58
2023-04-07T05:32:47.744Z,27.61
2023-04-07T05:33:49.120Z,27.63
2023-04-07T05:34:48.006Z,27.62
2023-04-07T05:35:48.829Z,27.59
2023-04-07T05:36:47.861Z,27.58
2023-04-07T05:37:48.886Z,27.62
2023-04-07T05:38:48.933Z,27.59
2023-04-07T05:39:48.969Z,27.66
2023-04-07T05:40:48.999Z,27.60
2023-04-07T05:41:48.101Z,27.62
2023-04-07T05:42:49.075Z,27.59
2023-04-07T05:43:48.200Z,27.62
2023-04-07T05:44:48.168Z,27.62
2023-04-07T05:45:48.226Z,27.55
2023-04-07T05:46:49.229Z,27.55
2023-04-07T05:47:49.361Z,27.60
2023-04-07T05:48:48.312Z,27.58
2023-04-07T05:49:49.431Z,27.60
2023-04-07T05:50:49.558Z,27.58
2023-04-07T05:51:49.478Z,27.59
2023-04-07T05:52:49.489Z,27.59
2023-04-07T05:53:48.511Z,27.58
2023-04-07T05:54:49.592Z,27.59
2023-04-07T05:55:49.610Z,27.59
2023-04-07T05:56:49.653Z,27.60
2023-04-07T05:57:48.713Z,27.60
2023-04-07T05:58:49.740Z,27.62
2023-04-07T05:59:49.812Z,27.62
2023-04-07T06:00:49.940Z,27.61
2023-04-07T06:01:49.981Z,27.63
2023-04-07T06:02:50.265Z,27.58
2023-04-07T06:03:49.178Z,27.60
2023-04-07T06:04:50.020Z,27.59
2023-04-07T06:05:50.031Z,27.63
2023-04-07T06:06:49.032Z,27.59
2023-04-07T06:07:50.172Z,27.63
2023-04-07T06:08:50.109Z,27.62
2023-04-07T06:09:50.156Z,27.64
2023-04-07T06:10:50.268Z,27.62
2023-04-07T06:11:50.232Z,27.58
2023-04-07T06:12:49.298Z,27.60
2023-04-07T06:13:50.777Z,27.62
2023-04-07T06:14:50.371Z,27.58
2023-04-07T06:15:50.375Z,27.60
2023-04-07T06:16:50.484Z,27.58
2023-04-07T06:17:49.465Z,27.64
2023-04-07T06:18:50.483Z,27.59
2023-04-07T06:19:50.574Z,27.59
2023-04-07T06:20:50.567Z,27.60
2023-04-07T06:21:50.611Z,27.59
2023-04-07T06:22:49.622Z,27.59
2023-04-07T06:23:49.805Z,27.65
2023-04-07T06:24:50.740Z,27.62
2023-04-07T06:25:50.778Z,27.59
2023-04-07T06:26:50.766Z,27.63
2023-04-07T06:27:50.804Z,27.59
2023-04-07T06:28:50.904Z,27.62
2023-04-07T06:29:50.921Z,27.60
2023-04-07T06:30:50.957Z,27.59
2023-04-07T06:31:50.016Z,27.62
2023-04-07T06:32:51.065Z,27.62
2023-04-07T06:33:51.447Z,27.63
2023-04-07T06:34:50.085Z,27.61
2023-04-07T06:35:51.120Z,27.59
2023-04-07T06:36:50.268Z,27.60
2023-04-07T06:37:51.223Z,27.55
2023-04-07T06:38:51.349Z,27.56
2023-04-07T06:39:50.283Z,27.59
2023-04-07T06:40:51.328Z,27.63
2023-04-07T06:41:51.361Z,27.59
2023-04-07T06:42:51.414Z,27.62
2023-04-07T06:43:51.445Z,27.60
2023-04-07T06:44:51.988Z,27.60
2023-04-07T06:45:51.574Z,27.59
2023-04-07T06:46:51.529Z,27.60
2023-04-07T06:47:51.594Z,27.60
2023-04-07T06:48:50.619Z,27.62
2023-04-07T06:49:50.641Z,27.58
2023-04-07T06:50:50.714Z,27.59
2023-04-07T06:51:51.718Z,27.62
2023-04-07T06:52:50.811Z,27.59
2023-04-07T06:53:50.831Z,27.56
2023-04-07T06:54:51.851Z,27.65
2023-04-07T06:55:50.892Z,27.66
2023-04-07T06:56:53.643Z,27.62
2023-04-07T06:57:50.915Z,27.64
2023-04-07T06:58:52.026Z,27.60
2023-04-07T06:59:51.914Z,27.69
2023-04-07T07:00:51.897Z,27.56
2023-04-07T07:01:51.933Z,27.60
2023-04-07T07:02:52.077Z,27.56
2023-04-07T07:03:51.110Z,27.57
2023-04-07T07:04:52.087Z,27.60
2023-04-07T07:05:51.882Z,27.57
2023-04-07T07:06:51.858Z,27.57
2023-04-07T07:07:51.860Z,27.59
2023-04-07T07:08:51.827Z,27.59
2023-04-07T07:09:51.849Z,27.59
2023-04-07T07:10:51.812Z,27.55
2023-04-07T07:11:50.832Z,27.58
2023-04-07T07:12:51.794Z,27.61
2023-04-07T07:13:51.799Z,27.59
2023-04-07T07:14:51.790Z,27.55
2023-04-07T07:15:51.801Z,27.58
2023-04-07T07:16:51.761Z,27.57
2023-04-07T07:17:51.858Z,27.56
2023-04-07T07:18:51.785Z,27.64
2023-04-07T07:19:51.772Z,27.60
2023-04-07T07:20:50.806Z,27.62
2023-04-07T07:21:51.733Z,27.60
2023-04-07T07:22:50.733Z,27.60
2023-04-07T07:23:51.722Z,27.59
2023-04-07T07:24:51.767Z,27.60
2023-04-07T07:25:51.741Z,27.61
2023-04-07T07:26:51.701Z,27.61
2023-04-07T07:27:51.769Z,27.56
2023-04-07T07:28:51.790Z,27.64
2023-04-07T07:29:50.887Z,27.59
2023-04-07T07:30:51.892Z,27.59
2023-04-07T07:31:52.904Z,27.62
2023-04-07T07:32:50.960Z,27.60
2023-04-07T07:33:50.946Z,27.63
2023-04-07T07:34:50.886Z,27.61
2023-04-07T07:35:52.193Z,27.59
2023-04-07T07:36:51.877Z,27.60
2023-04-07T07:37:51.867Z,27.59
2023-04-07T07:38:51.884Z,27.56
2023-04-07T07:39:51.860Z,27.56
2023-04-07T07:40:51.857Z,27.56
2023-04-07T07:41:50.867Z,27.57
2023-04-07T07:42:51.836Z,27.50
2023-04-07T07:43:51.816Z,27.56
2023-04-07T07:44:51.923Z,27.52
2023-04-07T07:45:51.817Z,27.55
2023-04-07T07:46:51.915Z,27.52
2023-04-07T07:47:51.840Z,27.57
2023-04-07T07:48:51.778Z,27.56
2023-04-07T07:49:51.778Z,27.53
2023-04-07T07:50:51.796Z,27.59
2023-04-07T07:51:50.764Z,27.57
2023-04-07T07:52:51.773Z,27.56
2023-04-07T07:53:51.748Z,27.57
2023-04-07T07:54:51.749Z,27.59
2023-04-07T07:55:51.732Z,27.55
2023-04-07T07:56:51.718Z,27.59
2023-04-07T07:57:51.742Z,27.55
2023-04-07T07:58:51.717Z,27.56
2023-04-07T07:59:51.728Z,27.57
2023-04-07T08:00:50.755Z,27.56
2023-04-07T08:01:51.845Z,27.55
2023-04-07T08:02:51.917Z,27.50
2023-04-07T08:03:51.206Z,27.55
2023-04-07T08:04:51.963Z,27.52
2023-04-07T08:05:51.967Z,27.55
2023-04-07T08:06:52.059Z,27.55
2023-04-07T08:07:53.401Z,27.55
2023-04-07T08:08:52.038Z,27.56
2023-04-07T08:09:52.034Z,27.50
2023-04-07T08:10:52.015Z,27.53
2023-04-07T08:11:52.038Z,27.53
2023-04-07T08:12:52.003Z,27.55
2023-04-07T08:13:52.020Z,27.53
2023-04-07T08:14:51.994Z,27.56
2023-04-07T08:15:52.001Z,27.55
2023-04-07T08:16:50.969Z,27.55
2023-04-07T08:17:53.428Z,27.52
2023-04-07T08:18:52.034Z,27.49
2023-04-07T08:19:51.972Z,27.47
2023-04-07T08:20:51.975Z,27.50
2023-04-07T08:21:51.960Z,27.50
2023-04-07T08:22:50.943Z,27.48
2023-04-07T08:23:51.938Z,27.53
2023-04-07T08:24:50.911Z,27.49
2023-04-07T08:25:52.032Z,27.49
2023-04-07T08:26:51.917Z,27.46
2023-04-07T08:27:51.898Z,27.44
2023-04-07T08:28:51.914Z,27.43
2023-04-07T08:29:51.916Z,27.48
2023-04-07T08:30:51.876Z,27.43
2023-04-07T08:31:50.927Z,27.52
2023-04-07T08:32:50.941Z,27.50
2023-04-07T08:33:51.876Z,27.44
2023-04-07T08:34:51.860Z,27.44
2023-04-07T08:35:51.853Z,27.46
2023-04-07T08:36:51.834Z,27.43
2023-04-07T08:37:51.822Z,27.42
2023-04-07T08:38:50.827Z,27.39
2023-04-07T08:39:51.815Z,27.42
2023-04-07T08:40:50.804Z,27.37
2023-04-07T08:41:51.802Z,27.40
2023-04-07T08:42:51.872Z,27.40
2023-04-07T08:43:51.793Z,27.39
2023-04-07T08:44:50.781Z,27.40
2023-04-07T08:45:52.956Z,27.39
2023-04-07T08:46:51.801Z,27.42
2023-04-07T08:47:51.856Z,27.35
2023-04-07T08:48:51.742Z,27.39
2023-04-07T08:49:51.740Z,27.36
2023-04-07T08:50:51.763Z,27.38
2023-04-07T08:51:51.728Z,27.36
2023-04-07T08:52:51.727Z,27.35
2023-04-07T08:53:50.767Z,27.38
2023-04-07T08:54:51.692Z,27.33
2023-04-07T08:55:50.694Z,27.35
2023-04-07T08:56:51.732Z,27.33
2023-04-07T08:57:51.691Z,27.36
2023-04-07T08:58:50.675Z,27.32
2023-04-07T08:59:51.712Z,27.28
2023-04-07T09:00:51.715Z,27.35
2023-04-07T09:01:50.721Z,27.29
2023-04-07T09:02:51.737Z,27.36
2023-04-07T09:03:50.933Z,27.38
2023-04-07T09:04:50.653Z,27.38
2023-04-07T09:05:51.645Z,27.33
2023-04-07T09:06:51.617Z,27.33
2023-04-07T09:07:51.694Z,27.33
2023-04-07T09:08:51.587Z,27.33
2023-04-07T09:09:51.602Z,27.33
2023-04-07T09:10:51.606Z,27.33
2023-04-07T09:11:50.572Z,27.32
2023-04-07T09:12:51.577Z,27.35
2023-04-07T09:13:51.567Z,27.32
2023-04-07T09:14:50.561Z,27.38
2023-04-07T09:15:51.551Z,27.36
2023-04-07T09:16:51.611Z,27.36
2023-04-07T09:17:51.633Z,27.35
2023-04-07T09:18:51.565Z,27.35
2023-04-07T09:19:51.625Z,27.35
2023-04-07T09:20:50.657Z,27.38
2023-04-07T09:21:51.739Z,27.38
2023-04-07T09:22:50.734Z,27.33
2023-04-07T09:23:51.839Z,27.29
2023-04-07T09:24:51.813Z,27.31
2023-04-07T09:25:51.859Z,27.33
2023-04-07T09:26:52.016Z,27.28
2023-04-07T09:27:51.924Z,27.31
2023-04-07T09:28:51.963Z,27.31
2023-04-07T09:29:51.057Z,27.29
2023-04-07T09:30:52.043Z,27.26
2023-04-07T09:31:52.222Z,27.28
2023-04-07T09:32:52.162Z,27.29
2023-04-07T09:33:52.193Z,27.26
2023-04-07T09:34:52.184Z,27.28
2023-04-07T09:35:52.308Z,27.29
2023-04-07T09:36:52.272Z,27.28
2023-04-07T09:37:51.327Z,27.28
2023-04-07T09:38:52.350Z,27.31
2023-04-07T09:39:52.392Z,27.23
2023-04-07T09:40:51.475Z,27.28
2023-04-07T09:41:52.486Z,27.28
2023-04-07T09:42:52.494Z,27.26
2023-04-07T09:43:51.560Z,27.32
2023-04-07T09:44:52.547Z,27.28
2023-04-07T09:45:52.650Z,27.29
2023-04-07T09:46:52.627Z,27.31
2023-04-07T09:47:52.692Z,27.29
2023-04-07T09:48:52.668Z,27.31
2023-04-07T09:49:52.765Z,27.28
2023-04-07T09:50:52.763Z,27.33
2023-04-07T09:51:52.785Z,27.25
2023-04-07T09:52:52.870Z,27.25
2023-04-07T09:53:52.871Z,27.29
2023-04-07T09:54:52.908Z,27.28
2023-04-07T09:55:52.940Z,27.30
2023-04-07T09:56:52.974Z,27.29
2023-04-07T09:57:53.033Z,27.29
2023-04-07T09:58:53.066Z,27.34
2023-04-07T09:59:53.079Z,27.31
2023-04-07T10:00:53.227Z,27.31
2023-04-07T10:01:55.646Z,27.31
2023-04-07T10:02:53.405Z,27.34
2023-04-07T10:03:53.172Z,27.32
2023-04-07T10:04:53.136Z,27.31
2023-04-07T10:05:53.179Z,27.31
2023-04-07T10:06:53.109Z,27.29
2023-04-07T10:07:53.109Z,27.27
2023-04-07T10:08:53.115Z,27.28
2023-04-07T10:09:53.094Z,27.29
2023-04-07T10:10:52.098Z,27.27
2023-04-07T10:11:53.149Z,27.32
2023-04-07T10:12:53.115Z,27.29
2023-04-07T10:13:52.065Z,27.28
2023-04-07T10:14:53.075Z,27.31
2023-04-07T10:15:52.077Z,27.28
2023-04-07T10:16:52.151Z,27.29
2023-04-07T10:17:53.060Z,27.32
2023-04-07T10:18:52.037Z,27.30
2023-04-07T10:19:53.028Z,27.34
2023-04-07T10:20:53.032Z,27.31
2023-04-07T10:21:53.036Z,27.31
2023-04-07T10:22:52.987Z,27.32
2023-04-07T10:23:52.993Z,27.32
2023-04-07T10:24:53.000Z,27.28
2023-04-07T10:25:52.982Z,27.28
2023-04-07T10:26:52.962Z,27.34
2023-04-07T10:27:52.985Z,27.28
2023-04-07T10:28:52.961Z,27.27
2023-04-07T10:29:52.972Z,27.31
2023-04-07T10:30:51.967Z,27.31
2023-04-07T10:31:52.948Z,27.31
2023-04-07T10:32:51.971Z,27.24
2023-04-07T10:33:52.980Z,27.27
2023-04-07T10:34:52.913Z,27.32
2023-04-07T10:35:52.953Z,27.27
2023-04-07T10:36:52.905Z,27.34
2023-04-07T10:37:53.035Z,27.28
2023-04-07T10:38:52.885Z,27.31
2023-04-07T10:39:52.869Z,27.34
2023-04-07T10:40:53.032Z,27.31
2023-04-07T10:41:51.904Z,27.33
2023-04-07T10:42:51.844Z,27.31
2023-04-07T10:43:52.832Z,27.33
2023-04-07T10:44:52.883Z,27.36
2023-04-07T10:45:52.908Z,27.30
2023-04-07T10:46:52.850Z,27.31
2023-04-07T10:47:52.854Z,27.30
2023-04-07T10:48:52.807Z,27.28
2023-04-07T10:49:52.786Z,27.28
2023-04-07T10:50:51.823Z,27.28
2023-04-07T10:51:52.772Z,27.31
2023-04-07T10:52:52.766Z,27.30
2023-04-07T10:53:52.800Z,27.30
2023-04-07T10:54:52.772Z,27.28
2023-04-07T10:55:52.828Z,27.33
2023-04-07T10:56:52.736Z,27.30
2023-04-07T10:57:51.733Z,27.32
2023-04-07T10:58:52.772Z,27.34
2023-04-07T10:59:52.713Z,27.34
2023-04-07T11:00:52.716Z,27.31
2023-04-07T11:01:52.886Z,27.34
2023-04-07T11:02:52.962Z,27.36
2023-04-07T11:03:52.889Z,27.30
2023-04-07T11:04:52.865Z,27.31
2023-04-07T11:05:52.796Z,27.33
2023-04-07T11:06:52.826Z,27.30
2023-04-07T11:07:51.842Z,27.34
2023-04-07T11:08:51.881Z,27.28
2023-04-07T11:09:51.911Z,27.27
2023-04-07T11:10:52.925Z,27.36
2023-04-07T11:11:52.980Z,27.32
2023-04-07T11:12:51.972Z,27.32
2023-04-07T11:13:52.015Z,27.30
2023-04-07T11:14:53.012Z,27.32
2023-04-07T11:15:52.075Z,27.33
2023-04-07T11:16:53.045Z,27.32
2023-04-07T11:17:53.104Z,27.30
2023-04-07T11:18:52.094Z,27.30
2023-04-07T11:19:53.130Z,27.33
2023-04-07T11:20:52.154Z,27.30
2023-04-07T11:21:53.152Z,27.34
2023-04-07T11:22:53.239Z,27.33
2023-04-07T11:23:53.182Z,27.32
2023-04-07T11:24:53.189Z,27.32
2023-04-07T11:25:53.255Z,27.36
2023-04-07T11:26:53.230Z,27.33
2023-04-07T11:27:53.272Z,27.30
2023-04-07T11:28:53.389Z,27.34
2023-04-07T11:29:53.311Z,27.32
2023-04-07T11:30:53.352Z,27.32
2023-04-07T11:31:53.575Z,27.30
2023-04-07T11:32:52.466Z,27.34
2023-04-07T11:33:52.393Z,27.33
2023-04-07T11:34:53.396Z,27.33
2023-04-07T11:35:52.450Z,27.35
2023-04-07T11:36:53.461Z,27.36
2023-04-07T11:37:53.460Z,27.34
2023-04-07T11:38:53.489Z,27.36
2023-04-07T11:39:52.499Z,27.34
2023-04-07T11:40:53.514Z,27.32
2023-04-07T11:41:52.586Z,27.35
2023-04-07T11:42:53.546Z,27.33
2023-04-07T11:43:53.578Z,27.32
2023-04-07T11:44:53.711Z,27.33
2023-04-07T11:45:53.618Z,27.35
2023-04-07T11:46:52.740Z,27.36
2023-04-07T11:47:53.667Z,27.36
2023-04-07T11:48:53.647Z,27.36
2023-04-07T11:49:53.673Z,27.36
2023-04-07T11:50:53.679Z,27.37
2023-04-07T11:51:53.692Z,27.37
2023-04-07T11:52:53.710Z,27.28
2023-04-07T11:53:52.732Z,27.39
2023-04-07T11:54:53.716Z,27.35
2023-04-07T11:55:53.761Z,27.33
2023-04-07T11:56:53.755Z,27.33
2023-04-07T11:57:53.752Z,27.32
2023-04-07T11:58:53.736Z,27.31
2023-04-07T11:59:53.825Z,27.35
2023-04-07T12:00:53.776Z,27.41
2023-04-07T12:01:56.994Z,27.33
2023-04-07T12:02:53.933Z,27.35
2023-04-07T12:03:53.418Z,27.33
2023-04-07T12:04:53.852Z,27.33
2023-04-07T12:05:53.754Z,27.37
2023-04-07T12:06:53.772Z,27.38
2023-04-07T12:07:52.770Z,27.41
2023-04-07T12:08:53.724Z,27.31
2023-04-07T12:09:53.711Z,27.32
2023-04-07T12:10:53.798Z,27.35
2023-04-07T12:11:52.718Z,27.38
2023-04-07T12:12:52.683Z,27.35
2023-04-07T12:13:53.711Z,27.37
2023-04-07T12:14:53.700Z,27.32
2023-04-07T12:15:53.679Z,27.29
2023-04-07T12:16:53.684Z,27.32
2023-04-07T12:17:53.666Z,27.35
2023-04-07T12:18:53.648Z,27.35
2023-04-07T12:19:52.669Z,27.39
2023-04-07T12:20:53.645Z,27.35
2023-04-07T12:21:53.646Z,27.33
2023-04-07T12:22:53.613Z,27.33
2023-04-07T12:23:53.627Z,27.33
2023-04-07T12:24:52.615Z,27.37
2023-04-07T12:25:52.638Z,27.36
2023-04-07T12:26:53.782Z,27.35
2023-04-07T12:27:53.594Z,27.39
2023-04-07T12:28:53.614Z,27.43
2023-04-07T12:29:53.648Z,27.37
2023-04-07T12:30:52.637Z,27.35
2023-04-07T12:31:52.684Z,27.38
2023-04-07T12:32:53.684Z,27.41
2023-04-07T12:33:53.712Z,27.38
2023-04-07T12:34:53.694Z,27.37
2023-04-07T12:35:53.879Z,27.39
2023-04-07T12:36:53.742Z,27.38
2023-04-07T12:37:52.722Z,27.38
2023-04-07T12:38:53.732Z,27.39
2023-04-07T12:39:53.732Z,27.42
2023-04-07T12:40:53.745Z,27.38
2023-04-07T12:41:53.809Z,27.39
2023-04-07T12:42:52.759Z,27.41
2023-04-07T12:43:53.772Z,27.41
2023-04-07T12:44:52.807Z,27.42
2023-04-07T12:45:53.877Z,27.41
2023-04-07T12:46:53.844Z,27.46
2023-04-07T12:47:52.882Z,27.42
2023-04-07T12:48:53.900Z,27.33
2023-04-07T12:49:53.865Z,27.41
2023-04-07T12:50:52.924Z,27.45
2023-04-07T12:51:53.892Z,27.39
2023-04-07T12:52:53.896Z,27.39